createdAt,value
2022-11-08T00:00:02.172Z,77.60
2022-11-08T00:02:30.161Z,77.90
2022-11-08T00:05:13.454Z,78.30
2022-11-08T00:07:58.483Z,79.50
2022-11-08T00:10:44.083Z,78.90
2022-11-08T00:13:29.462Z,78.20
2022-11-08T00:15:57.373Z,79.70
2022-11-08T00:18:25.254Z,79.50
2022-11-08T00:20:54.481Z,80.00
2022-11-08T00:23:22.378Z,80.50
2022-11-08T00:25:54.606Z,80.70
2022-11-08T00:28:22.547Z,81.10
2022-11-08T00:30:50.435Z,81.60
2022-11-08T00:33:18.385Z,81.90
2022-11-08T00:35:46.279Z,81.80
2022-11-08T00:38:15.757Z,81.60
2022-11-08T00:40:43.939Z,81.00
2022-11-08T00:43:11.817Z,78.80
2022-11-08T00:45:39.718Z,74.40
2022-11-08T00:48:07.823Z,76.60
2022-11-08T00:50:38.817Z,76.40
2022-11-08T00:53:06.829Z,76.70
2022-11-08T00:55:36.091Z,76.10
2022-11-08T00:58:03.976Z,76.10
2022-11-08T01:00:31.864Z,76.20
2022-11-08T01:03:13.948Z,76.50
2022-11-08T01:05:42.009Z,77.10
2022-11-08T01:08:10.409Z,77.30
2022-11-08T01:10:42.579Z,77.60
2022-11-08T01:13:10.776Z,76.50
2022-11-08T01:15:41.461Z,77.10
2022-11-08T01:18:10.770Z,76.00
2022-11-08T01:20:39.843Z,75.90
2022-11-08T01:23:07.873Z,75.20
2022-11-08T01:25:37.144Z,75.70
2022-11-08T01:28:06.978Z,75.90
2022-11-08T01:30:38.353Z,77.40
2022-11-08T01:33:07.139Z,75.70
2022-11-08T01:35:37.057Z,74.60
2022-11-08T01:38:06.912Z,74.70
2022-11-08T01:40:36.234Z,75.40
2022-11-08T01:46:37.141Z,76.00
2022-11-08T01:49:24.063Z,77.70
2022-11-08T01:52:01.694Z,78.20
2022-11-08T01:54:33.473Z,78.70
2022-11-08T01:57:05.164Z,79.00
2022-11-08T01:59:35.114Z,79.00
2022-11-08T02:02:04.950Z,78.90
2022-11-08T02:04:33.777Z,77.10
2022-11-08T02:07:02.742Z,75.70
2022-11-08T02:09:32.583Z,72.50
2022-11-08T02:12:00.878Z,72.80
2022-11-08T02:14:28.938Z,74.10
2022-11-08T02:16:56.806Z,75.00
2022-11-08T02:19:34.797Z,75.10
2022-11-08T02:22:06.285Z,76.30
2022-11-08T02:24:36.258Z,76.50
2022-11-08T02:27:04.339Z,75.90
2022-11-08T02:29:34.510Z,75.10
2022-11-08T02:32:04.076Z,75.00
2022-11-08T02:34:35.508Z,74.00
2022-11-08T02:37:04.232Z,75.00
2022-11-08T02:39:32.973Z,76.10
2022-11-08T02:42:02.631Z,76.70
2022-11-08T02:44:30.620Z,77.30
2022-11-08T02:46:58.528Z,78.30
2022-11-08T02:49:26.406Z,79.00
2022-11-08T02:51:55.199Z,79.80
2022-11-08T02:54:23.400Z,79.80
2022-11-08T02:56:51.319Z,79.10
2022-11-08T02:59:20.554Z,78.60
2022-11-08T03:01:48.526Z,79.30
2022-11-08T03:04:16.575Z,76.80
2022-11-08T03:06:44.529Z,76.90
2022-11-08T03:09:12.561Z,75.00
2022-11-08T03:11:40.509Z,74.90
2022-11-08T03:14:08.539Z,73.90
2022-11-08T03:16:37.845Z,73.80
2022-11-08T03:19:05.768Z,73.90
2022-11-08T03:21:36.556Z,74.30
2022-11-08T03:24:04.628Z,74.20
2022-11-08T03:26:33.146Z,74.60
2022-11-08T03:29:01.042Z,74.60
2022-11-08T03:31:29.021Z,74.50
2022-11-08T03:33:58.254Z,74.00
2022-11-08T03:36:26.423Z,74.20
2022-11-08T03:38:54.438Z,74.40
2022-11-08T03:41:22.403Z,75.60
2022-11-08T03:43:50.272Z,74.60
2022-11-08T03:46:18.200Z,74.40
2022-11-08T03:48:46.090Z,74.40
2022-11-08T03:51:15.364Z,74.30
2022-11-08T03:53:43.360Z,76.10
2022-11-08T03:56:11.268Z,76.40
2022-11-08T03:58:39.176Z,76.60
2022-11-08T04:01:07.949Z,76.70
2022-11-08T04:03:35.941Z,77.10
2022-11-08T04:06:04.277Z,76.80
2022-11-08T04:08:33.609Z,75.90
2022-11-08T04:11:22.421Z,74.50
2022-11-08T04:14:07.775Z,72.90
2022-11-08T04:16:35.815Z,71.80
2022-11-08T04:19:21.228Z,71.70
2022-11-08T04:21:50.576Z,73.10
2022-11-08T04:24:20.436Z,74.10
2022-11-08T04:26:48.613Z,74.90
2022-11-08T04:29:16.581Z,74.50
2022-11-08T04:31:44.479Z,75.00
2022-11-08T04:34:12.555Z,74.40
2022-11-08T04:36:40.468Z,75.80
2022-11-08T04:39:08.361Z,75.50
2022-11-08T04:41:37.593Z,75.20
2022-11-08T04:44:05.712Z,76.40
2022-11-08T04:46:33.573Z,76.70
2022-11-08T04:49:01.914Z,76.50
2022-11-08T04:51:31.506Z,75.70
2022-11-08T04:54:00.992Z,75.80
2022-11-08T04:56:30.379Z,75.80
2022-11-08T04:59:01.027Z,75.70
2022-11-08T05:01:30.839Z,74.50
2022-11-08T05:03:59.373Z,74.60
2022-11-08T05:06:29.062Z,75.00
2022-11-08T05:08:58.448Z,75.50
2022-11-08T05:11:28.667Z,76.00
2022-11-08T05:13:57.242Z,76.40
2022-11-08T05:16:28.540Z,74.10
2022-11-08T05:18:57.196Z,73.30
2022-11-08T05:21:43.578Z,73.40
2022-11-08T05:24:13.954Z,73.60
2022-11-08T05:26:43.433Z,73.80
2022-11-08T05:29:12.046Z,74.50
2022-11-08T05:31:41.753Z,74.10
2022-11-08T05:34:09.684Z,73.80
2022-11-08T05:36:37.591Z,74.30
2022-11-08T05:39:05.607Z,74.80
2022-11-08T05:41:33.470Z,75.20
2022-11-08T05:44:01.378Z,75.40
2022-11-08T05:46:29.246Z,75.50
2022-11-08T05:48:58.657Z,74.30
2022-11-08T05:51:26.578Z,73.30
2022-11-08T05:53:54.501Z,72.20
2022-11-08T05:56:22.493Z,72.70
2022-11-08T05:58:50.409Z,72.90
2022-11-08T06:01:20.118Z,73.50
2022-11-08T06:03:48.889Z,73.40
2022-11-08T06:06:20.461Z,73.50
2022-11-08T06:08:51.510Z,74.70
2022-11-08T06:11:37.531Z,75.50
2022-11-08T06:14:06.443Z,74.30
2022-11-08T06:16:34.380Z,73.60
2022-11-08T06:19:02.260Z,72.90
2022-11-08T06:21:31.588Z,72.10
2022-11-08T06:23:59.468Z,73.60
2022-11-08T06:26:27.420Z,74.00
2022-11-08T06:28:55.319Z,73.60
2022-11-08T06:31:24.028Z,74.90
2022-11-08T06:33:52.036Z,76.00
2022-11-08T06:36:21.680Z,76.00
2022-11-08T06:38:55.454Z,77.00
2022-11-08T06:41:24.281Z,73.50
2022-11-08T06:43:52.167Z,72.50
2022-11-08T06:46:20.040Z,72.50
2022-11-08T06:48:48.240Z,73.70
2022-11-08T06:51:16.185Z,73.90
2022-11-08T06:53:44.307Z,74.80
2022-11-08T06:56:14.031Z,74.10
2022-11-08T06:58:42.050Z,74.20
2022-11-08T07:01:11.762Z,72.70
2022-11-08T07:03:39.696Z,71.00
2022-11-08T07:06:08.557Z,69.80
2022-11-08T07:08:36.751Z,70.20
2022-11-08T07:11:04.889Z,71.50
2022-11-08T07:13:34.093Z,71.10
2022-11-08T07:16:02.839Z,70.10
2022-11-08T07:18:31.498Z,70.30
2022-11-08T07:21:01.010Z,70.20
2022-11-08T07:23:29.392Z,70.60
2022-11-08T07:25:57.305Z,71.00
2022-11-08T07:28:25.146Z,70.40
2022-11-08T07:30:59.345Z,69.30
2022-11-08T07:33:27.449Z,68.70
2022-11-08T07:35:55.454Z,67.30
2022-11-08T07:38:23.598Z,66.60
2022-11-08T07:40:51.585Z,62.40
2022-11-08T07:43:19.417Z,61.60
2022-11-08T07:45:48.597Z,62.20
2022-11-08T07:48:17.781Z,63.10
2022-11-08T07:50:47.657Z,64.20
2022-11-08T07:53:15.876Z,64.80
2022-11-08T07:55:44.036Z,65.80
2022-11-08T07:58:13.829Z,66.90
2022-11-08T08:00:43.206Z,68.10
2022-11-08T08:03:13.224Z,67.60
2022-11-08T08:05:44.288Z,67.50
2022-11-08T08:08:13.335Z,67.40
2022-11-08T08:10:41.964Z,68.30
2022-11-08T08:13:10.164Z,68.80
2022-11-08T08:15:38.113Z,70.40
2022-11-08T08:18:07.825Z,70.70
2022-11-08T08:20:38.466Z,71.40
2022-11-08T08:23:08.052Z,72.00
2022-11-08T08:25:36.020Z,72.60
2022-11-08T08:28:05.936Z,73.00
2022-11-08T08:30:34.360Z,73.80
2022-11-08T08:33:26.805Z,73.60
2022-11-08T08:35:54.117Z,74.00
2022-11-08T08:38:23.344Z,75.20
2022-11-08T08:40:52.269Z,73.70
2022-11-08T08:43:20.635Z,75.80
2022-11-08T08:45:49.589Z,76.60
2022-11-08T08:48:18.058Z,74.90
2022-11-08T08:50:45.945Z,72.10
2022-11-08T08:53:14.426Z,73.70
2022-11-08T08:55:43.878Z,72.90
2022-11-08T08:58:12.226Z,72.00
2022-11-08T09:03:28.036Z,72.80
2022-11-08T09:05:58.121Z,72.10
2022-11-08T09:08:26.027Z,72.50
2022-11-08T09:10:56.285Z,72.60
2022-11-08T09:13:26.162Z,73.10
2022-11-08T09:15:55.143Z,73.70
2022-11-08T09:18:23.324Z,72.10
2022-11-08T09:20:51.570Z,72.90
2022-11-08T09:23:19.840Z,71.20
2022-11-08T09:25:48.068Z,71.60
2022-11-08T09:28:18.793Z,73.00
2022-11-08T09:30:46.677Z,73.10
2022-11-08T09:33:14.736Z,71.30
2022-11-08T09:35:42.798Z,70.20
2022-11-08T09:38:10.671Z,69.80
2022-11-08T09:40:41.900Z,70.20
2022-11-08T09:43:30.493Z,68.70
2022-11-08T09:45:58.671Z,69.30
2022-11-08T09:48:31.149Z,67.80
2022-11-08T09:51:02.310Z,68.20
2022-11-08T09:53:37.671Z,68.40
2022-11-08T09:56:13.353Z,67.70
2022-11-08T09:58:50.344Z,67.20
2022-11-08T10:01:21.120Z,66.90
2022-11-08T10:03:55.236Z,66.30
2022-11-08T10:06:58.124Z,63.60
2022-11-08T10:09:45.479Z,65.40
2022-11-08T10:12:20.728Z,65.10
2022-11-08T10:15:03.414Z,63.50
2022-11-08T10:17:41.996Z,63.50
2022-11-08T10:20:18.861Z,63.00
2022-11-08T10:22:55.401Z,62.20
2022-11-08T10:25:26.280Z,61.10
2022-11-08T10:28:02.378Z,62.90
2022-11-08T10:30:35.665Z,62.60
2022-11-08T10:33:13.048Z,62.70
2022-11-08T10:35:46.617Z,63.90
2022-11-08T10:38:20.636Z,61.30
2022-11-08T10:40:58.840Z,58.60
2022-11-08T10:43:34.985Z,58.40
2022-11-08T10:46:05.208Z,59.40
2022-11-08T10:48:38.780Z,58.00
2022-11-08T10:51:07.089Z,56.00
2022-11-08T10:53:35.276Z,55.30
2022-11-08T10:56:04.757Z,54.60
2022-11-08T10:58:38.573Z,53.90
2022-11-08T11:01:15.854Z,52.70
2022-11-08T11:03:44.097Z,53.60
2022-11-08T11:06:24.246Z,53.50
2022-11-08T11:08:56.913Z,52.90
2022-11-08T11:11:37.205Z,54.10
2022-11-08T11:14:16.487Z,52.60
2022-11-08T11:16:57.583Z,52.50
2022-11-08T11:19:27.054Z,51.60
2022-11-08T11:21:58.540Z,50.80
2022-11-08T11:24:26.797Z,48.10
2022-11-08T11:27:04.381Z,49.40
2022-11-08T11:29:33.968Z,50.40
2022-11-08T11:32:24.263Z,49.50
2022-11-08T11:34:55.912Z,50.90
2022-11-08T11:37:31.575Z,49.90
2022-11-08T11:40:07.231Z,49.80
2022-11-08T11:42:47.683Z,50.30
2022-11-08T11:45:20.889Z,49.80
2022-11-08T11:47:53.500Z,49.00
2022-11-08T11:50:29.897Z,49.60
2022-11-08T11:52:59.063Z,47.80
2022-11-08T11:55:36.171Z,48.30
2022-11-08T11:58:17.686Z,47.60
2022-11-08T12:00:56.464Z,47.50
2022-11-08T12:03:46.258Z,45.80
2022-11-08T12:06:28.195Z,46.40
2022-11-08T12:09:11.750Z,46.30
2022-11-08T12:11:51.069Z,47.30
2022-11-08T12:14:38.165Z,48.60
2022-11-08T12:17:30.952Z,48.80
2022-11-08T12:20:13.525Z,47.60
2022-11-08T12:22:52.061Z,47.00
2022-11-08T12:25:25.799Z,47.20
2022-11-08T12:27:58.868Z,47.70
2022-11-08T12:30:32.382Z,48.60
2022-11-08T12:33:28.696Z,48.00
2022-11-08T12:36:12.923Z,49.30
2022-11-08T12:38:48.462Z,49.70
2022-11-08T12:41:25.426Z,48.90
2022-11-08T12:44:22.858Z,48.90
2022-11-08T12:47:06.731Z,49.00
2022-11-08T12:49:40.163Z,48.80
2022-11-08T12:52:21.535Z,48.20
2022-11-08T12:54:54.333Z,47.40
2022-11-08T12:57:28.075Z,48.50
2022-11-08T13:00:02.936Z,49.60
2022-11-08T13:02:34.264Z,48.70
2022-11-08T13:05:07.671Z,48.70
2022-11-08T13:07:45.895Z,48.00
2022-11-08T13:10:24.143Z,48.20
2022-11-08T13:13:08.966Z,49.70
2022-11-08T13:15:37.042Z,50.90
2022-11-08T13:18:32.654Z,50.60
2022-11-08T13:21:00.579Z,51.80
2022-11-08T13:23:33.013Z,52.90
2022-11-08T13:26:21.538Z,52.30
2022-11-08T13:28:50.044Z,50.60
2022-11-08T13:31:30.367Z,49.50
2022-11-08T13:34:37.279Z,49.50
2022-11-08T13:37:37.223Z,49.30
2022-11-08T13:40:29.314Z,49.80
2022-11-08T13:43:20.151Z,50.00
2022-11-08T13:45:48.913Z,50.10
2022-11-08T13:48:38.008Z,48.50
2022-11-08T13:51:28.305Z,48.70
2022-11-08T13:53:59.117Z,49.00
2022-11-08T13:56:50.840Z,48.90
2022-11-08T13:59:52.139Z,47.80
2022-11-08T14:02:36.707Z,47.60
2022-11-08T14:05:26.453Z,48.60
2022-11-08T14:08:23.425Z,48.20
2022-11-08T14:11:18.833Z,48.30
2022-11-08T14:14:03.980Z,48.80
2022-11-08T14:16:38.388Z,49.40
2022-11-08T14:19:19.614Z,48.90
2022-11-08T14:21:52.909Z,49.60
2022-11-08T14:24:24.815Z,50.50
2022-11-08T14:26:53.580Z,51.50
2022-11-08T14:29:24.764Z,51.80
2022-11-08T14:32:04.553Z,52.30
2022-11-08T14:34:35.007Z,53.10
2022-11-08T14:37:03.731Z,54.30
2022-11-08T14:39:33.654Z,54.70
2022-11-08T14:42:03.442Z,55.40
2022-11-08T14:44:32.756Z,56.60
2022-11-08T14:47:00.732Z,56.80
2022-11-08T14:49:33.674Z,57.30
2022-11-08T14:52:15.649Z,57.60
2022-11-08T14:54:46.548Z,59.70
2022-11-08T14:57:31.972Z,60.40
2022-11-08T15:00:03.714Z,61.80
2022-11-08T15:02:32.130Z,61.70
2022-11-08T15:05:00.125Z,61.90
2022-11-08T15:07:28.216Z,62.60
2022-11-08T15:09:56.530Z,64.50
2022-11-08T15:12:25.866Z,65.40
2022-11-08T15:14:57.777Z,65.60
2022-11-08T15:17:38.150Z,66.40
2022-11-08T15:20:18.429Z,66.20
2022-11-08T15:22:47.011Z,66.10
2022-11-08T15:25:25.457Z,66.20
2022-11-08T15:27:56.164Z,66.20
2022-11-08T15:30:35.577Z,66.50
2022-11-08T15:33:05.496Z,67.10
2022-11-08T15:35:36.510Z,67.10
2022-11-08T15:38:05.922Z,66.90
2022-11-08T15:40:35.908Z,67.70
2022-11-08T15:43:04.452Z,67.70
2022-11-08T15:45:35.294Z,67.90
2022-11-08T15:48:21.577Z,68.30
2022-11-08T15:50:49.944Z,66.40
2022-11-08T15:53:18.219Z,65.10
2022-11-08T15:55:51.318Z,66.00
2022-11-08T15:58:26.268Z,67.10
2022-11-08T16:00:54.239Z,67.50
2022-11-08T16:03:23.757Z,68.60
2022-11-08T16:05:51.637Z,70.10
2022-11-08T16:08:20.936Z,70.10
2022-11-08T16:10:50.999Z,70.10
2022-11-08T16:13:22.296Z,68.80
2022-11-08T16:15:50.199Z,70.00
2022-11-08T16:18:19.805Z,69.90
2022-11-08T16:20:49.622Z,70.30
2022-11-08T16:23:17.777Z,71.70
2022-11-08T16:25:48.620Z,72.30
2022-11-08T16:28:21.815Z,73.20
2022-11-08T16:30:49.887Z,73.30
2022-11-08T16:33:21.574Z,72.40
2022-11-08T16:35:51.943Z,73.20
2022-11-08T16:38:24.688Z,73.40
2022-11-08T16:40:52.588Z,71.80
2022-11-08T16:43:20.546Z,73.10
2022-11-08T16:46:05.068Z,74.10
2022-11-08T16:48:34.708Z,73.60
2022-11-08T16:51:06.182Z,74.00
2022-11-08T16:53:35.653Z,74.00
2022-11-08T16:56:03.538Z,75.00
2022-11-08T16:58:31.583Z,73.50
2022-11-08T17:00:59.711Z,73.70
2022-11-08T17:03:29.610Z,72.60
2022-11-08T17:05:58.037Z,73.50
2022-11-08T17:08:27.265Z,74.70
2022-11-08T17:10:55.930Z,75.40
2022-11-08T17:13:24.246Z,76.30
2022-11-08T17:15:52.555Z,75.70
2022-11-08T17:18:22.004Z,76.10
2022-11-08T17:20:51.538Z,75.90
2022-11-08T17:23:19.392Z,76.10
2022-11-08T17:25:48.650Z,76.00
2022-11-08T17:28:16.887Z,76.00
2022-11-08T17:30:45.118Z,76.30
2022-11-08T17:33:14.074Z,77.00
2022-11-08T17:35:44.303Z,77.00
2022-11-08T17:38:12.653Z,76.70
2022-11-08T17:40:42.226Z,74.30
2022-11-08T17:43:13.605Z,74.00
2022-11-08T17:45:42.838Z,72.60
2022-11-08T17:48:10.737Z,73.00
2022-11-08T17:50:38.655Z,74.50
2022-11-08T17:53:06.526Z,75.00
2022-11-08T17:55:34.457Z,76.50
2022-11-08T17:58:02.317Z,77.30
2022-11-08T18:00:31.691Z,76.90
2022-11-08T18:02:59.602Z,76.90
2022-11-08T18:05:27.501Z,77.90
2022-11-08T18:07:55.395Z,74.00
2022-11-08T18:10:23.274Z,74.80
2022-11-08T18:12:51.142Z,73.50
2022-11-08T18:15:19.206Z,76.10
2022-11-08T18:17:48.591Z,76.80
2022-11-08T18:20:16.596Z,77.40
2022-11-08T18:22:44.714Z,77.60
2022-11-08T18:25:12.558Z,77.50
2022-11-08T18:27:40.435Z,75.80
2022-11-08T18:30:09.400Z,74.50
2022-11-08T18:32:37.494Z,73.80
2022-11-08T18:35:08.227Z,75.70
2022-11-08T18:37:36.106Z,74.90
2022-11-08T18:40:04.320Z,73.80
2022-11-08T18:42:32.363Z,75.40
2022-11-08T18:45:00.379Z,75.40
2022-11-08T18:47:28.981Z,77.10
2022-11-08T18:50:01.203Z,78.20
2022-11-08T18:52:30.556Z,77.80
2022-11-08T18:54:58.436Z,76.10
2022-11-08T18:57:26.294Z,75.50
2022-11-08T18:59:58.381Z,75.60
2022-11-08T19:02:28.716Z,75.70
2022-11-08T19:04:57.207Z,76.30
2022-11-08T19:07:25.204Z,77.00
2022-11-08T19:09:54.405Z,76.60
2022-11-08T19:12:22.269Z,77.00
2022-11-08T19:14:50.133Z,76.90
2022-11-08T19:17:18.091Z,76.90
2022-11-08T19:19:45.979Z,77.20
2022-11-08T19:22:13.882Z,78.50
2022-11-08T19:24:41.779Z,78.90
2022-11-08T19:27:11.015Z,78.80
2022-11-08T19:29:38.888Z,79.10
2022-11-08T19:32:06.896Z,79.20
2022-11-08T19:34:35.793Z,78.60
2022-11-08T19:37:03.707Z,77.50
2022-11-08T19:39:32.123Z,77.10
2022-11-08T19:42:00.629Z,76.50
2022-11-08T19:44:31.754Z,76.60
2022-11-08T19:46:59.623Z,76.60
2022-11-08T19:49:28.693Z,77.30
2022-11-08T19:51:56.649Z,77.20
2022-11-08T19:54:24.554Z,77.10
2022-11-08T19:57:07.736Z,77.20
2022-11-08T19:59:36.998Z,76.20
2022-11-08T20:02:05.008Z,75.50
2022-11-08T20:04:32.924Z,75.90
2022-11-08T20:07:00.864Z,76.50
2022-11-08T20:09:31.081Z,77.00
2022-11-08T20:11:59.073Z,77.00
2022-11-08T20:14:26.991Z,77.00
2022-11-08T20:16:56.249Z,77.00
2022-11-08T20:19:24.236Z,77.50
2022-11-08T20:21:55.021Z,77.80
2022-11-08T20:24:23.546Z,78.40
2022-11-08T20:26:51.398Z,78.30
2022-11-08T20:29:19.280Z,78.50
2022-11-08T20:31:47.161Z,78.40
2022-11-08T20:34:18.743Z,79.10
2022-11-08T20:36:46.869Z,80.00
2022-11-08T20:39:15.972Z,77.70
2022-11-08T20:41:44.141Z,77.20
2022-11-08T20:44:12.319Z,77.10
2022-11-08T20:46:40.307Z,78.10
2022-11-08T20:49:08.634Z,77.40
2022-11-08T20:51:38.144Z,77.10
2022-11-08T20:54:06.099Z,77.00
2022-11-08T20:56:33.978Z,78.20
2022-11-08T20:59:02.560Z,79.10
2022-11-08T21:01:32.795Z,78.80
2022-11-08T21:04:01.283Z,79.70
2022-11-08T21:06:35.637Z,79.10
2022-11-08T21:11:54.361Z,78.40
2022-11-08T21:14:23.572Z,78.80
2022-11-08T21:17:21.444Z,78.80
2022-11-08T21:19:40.114Z,79.10
2022-11-08T21:22:17.374Z,78.50
2022-11-08T21:24:49.058Z,78.10
2022-11-08T21:27:17.212Z,78.50
2022-11-08T21:29:45.133Z,79.70
2022-11-08T21:32:13.027Z,80.20
2022-11-08T21:34:45.474Z,80.00
2022-11-08T21:37:13.736Z,80.60
2022-11-08T21:39:42.016Z,80.90
2022-11-08T21:42:11.323Z,81.10
2022-11-08T21:44:39.152Z,80.50
2022-11-08T21:47:07.009Z,80.00
2022-11-08T21:49:34.843Z,80.60
2022-11-08T21:52:03.631Z,80.50
2022-11-08T21:54:31.517Z,81.10
2022-11-08T21:56:59.341Z,81.20
2022-11-08T21:59:28.513Z,81.60
2022-11-08T22:01:56.366Z,82.20
2022-11-08T22:04:24.269Z,82.30
2022-11-08T22:06:52.140Z,82.30
2022-11-08T22:09:20.080Z,82.60
2022-11-08T22:11:47.934Z,83.10
2022-11-08T22:14:15.854Z,81.80
2022-11-08T22:16:45.090Z,81.90
2022-11-08T22:19:13.556Z,80.60
2022-11-08T22:21:43.157Z,81.80
2022-11-08T22:24:13.142Z,82.50
2022-11-08T22:26:42.130Z,82.50
2022-11-08T22:29:10.406Z,81.70
2022-11-08T22:31:38.475Z,81.50
2022-11-08T22:34:09.070Z,81.20
2022-11-08T22:36:44.011Z,81.20
2022-11-08T22:39:13.826Z,81.70
2022-11-08T22:41:42.007Z,82.20
2022-11-08T22:44:12.320Z,82.00
2022-11-08T22:46:41.308Z,82.50
2022-11-08T22:49:10.567Z,82.40
2022-11-08T22:51:39.015Z,82.50
2022-11-08T22:54:07.143Z,82.70
2022-11-08T22:56:35.225Z,83.10
2022-11-08T22:59:03.460Z,83.40
2022-11-08T23:01:31.308Z,83.70
2022-11-08T23:03:59.198Z,83.50
2022-11-08T23:06:28.459Z,83.90
2022-11-08T23:08:56.413Z,83.40
2022-11-08T23:11:41.940Z,82.90
2022-11-08T23:14:33.804Z,82.90
2022-11-08T23:17:05.008Z,82.90
2022-11-08T23:19:50.806Z,82.50
2022-11-08T23:22:37.583Z,82.80
2022-11-08T23:25:06.337Z,82.80
2022-11-08T23:27:51.540Z,82.80
2022-11-08T23:30:37.625Z,83.20
2022-11-08T23:33:06.518Z,84.10
2022-11-08T23:35:34.807Z,84.10
2022-11-08T23:38:04.231Z,84.10
2022-11-08T23:41:03.926Z,84.60
2022-11-08T23:43:48.783Z,85.00
2022-11-08T23:46:16.681Z,85.30
2022-11-08T23:48:44.689Z,85.00
2022-11-08T23:51:12.618Z,83.90
2022-11-08T23:53:41.901Z,84.50
2022-11-08T23:56:09.761Z,83.80
2022-11-08T23:58:37.644Z,83.80
